MRN77 EDMK-LSZB
Flight info
| Callsign | MRN77 |
|---|---|
| Flight time | N/A |
| Altitude | 8000 |
| Route | BODAN Z601 TRA L856 HOC/N0178F070 DCT WIL |
| Aircraft | C208/L-SDFGR/C |
Departure
| Time | 2026-04-21 15:04 |
|---|---|
| Airport | Kempten-Durach Airfield (EDMK) |
Arrival
| Time | N/A |
|---|---|
| Airport | Bern Airport (LSZB) |
| Time | Latitude | Longitude | Altitude | Speed | Heading |
|---|---|---|---|---|---|
| 2026-04-21 14:53 | 47.69367 | 10.34123 | 2372 ft | 0 kts | 76° |
| 2026-04-21 14:59 | 47.69365 | 10.34131 | 2374 ft | 3 kts | 146° |
| 2026-04-21 15:00 | 47.69326 | 10.34079 | 2371 ft | 16 kts | 254° |
| 2026-04-21 15:00 | 47.69287 | 10.33875 | 2366 ft | 17 kts | 245° |
| 2026-04-21 15:00 | 47.69212 | 10.33823 | 2364 ft | 11 kts | 172° |
| 2026-04-21 15:00 | 47.69118 | 10.33845 | 2366 ft | 19 kts | 168° |
| 2026-04-21 15:01 | 47.68987 | 10.33877 | 2366 ft | 19 kts | 171° |
| 2026-04-21 15:01 | 47.68854 | 10.33902 | 2366 ft | 16 kts | 179° |
| 2026-04-21 15:01 | 47.68733 | 10.33940 | 2368 ft | 20 kts | 164° |
| 2026-04-21 15:01 | 47.68688 | 10.33964 | 2366 ft | 0 kts | 3° |
| 2026-04-21 15:03 | 47.68694 | 10.33964 | 2366 ft | 4 kts | 351° |
| 2026-04-21 15:03 | 47.68815 | 10.33928 | 2366 ft | 42 kts | 349° |
| 2026-04-21 15:03 | 47.69257 | 10.33786 | 2415 ft | 80 kts | 353° |
| 2026-04-21 15:03 | 47.69804 | 10.33548 | 2632 ft | 87 kts | 352° |
| 2026-04-21 15:04 | 47.70464 | 10.33157 | 2745 ft | 116 kts | 329° |
| 2026-04-21 15:04 | 47.70835 | 10.32071 | 3119 ft | 125 kts | 282° |
| 2026-04-21 15:04 | 47.70742 | 10.30877 | 3696 ft | 113 kts | 252° |
| 2026-04-21 15:04 | 47.70392 | 10.29701 | 3806 ft | 139 kts | 245° |
| 2026-04-21 15:05 | 47.69921 | 10.28383 | 3999 ft | 149 kts | 243° |
| 2026-04-21 15:05 | 47.68839 | 10.25531 | 4407 ft | 167 kts | 244° |
| 2026-04-21 15:05 | 47.68387 | 10.23917 | 4576 ft | 171 kts | 254° |
| 2026-04-21 15:06 | 47.68061 | 10.22219 | 4738 ft | 171 kts | 260° |
| 2026-04-21 15:06 | 47.67806 | 10.20485 | 4918 ft | 173 kts | 262° |
| 2026-04-21 15:06 | 47.67580 | 10.18731 | 5098 ft | 173 kts | 263° |
| 2026-04-21 15:06 | 47.67367 | 10.16963 | 5277 ft | 174 kts | 263° |
| 2026-04-21 15:07 | 47.67155 | 10.15195 | 5480 ft | 173 kts | 263° |
| 2026-04-21 15:07 | 47.66951 | 10.13464 | 5737 ft | 168 kts | 263° |
| 2026-04-21 15:07 | 47.66771 | 10.11921 | 5978 ft | 166 kts | 263° |
| 2026-04-21 15:07 | 47.66573 | 10.10242 | 6247 ft | 165 kts | 263° |
| 2026-04-21 15:08 | 47.66379 | 10.08570 | 6520 ft | 164 kts | 263° |
| 2026-04-21 15:08 | 47.66185 | 10.06906 | 6765 ft | 164 kts | 262° |
| 2026-04-21 15:08 | 47.66002 | 10.05353 | 6992 ft | 162 kts | 262° |
| 2026-04-21 15:08 | 47.65906 | 10.04542 | 7115 ft | 161 kts | 262° |
| 2026-04-21 15:09 | 47.65718 | 10.02938 | 7364 ft | 159 kts | 262° |
| 2026-04-21 15:09 | 47.65530 | 10.01330 | 7610 ft | 157 kts | 262° |
| 2026-04-21 15:09 | 47.65343 | 9.99750 | 7865 ft | 154 kts | 261° |
| 2026-04-21 15:09 | 47.65157 | 9.98164 | 7986 ft | 161 kts | 261° |
| 2026-04-21 15:10 | 47.64964 | 9.96482 | 8005 ft | 170 kts | 262° |
| 2026-04-21 15:10 | 47.64760 | 9.94725 | 8019 ft | 175 kts | 261° |
| 2026-04-21 15:10 | 47.64548 | 9.92922 | 8019 ft | 179 kts | 261° |
| 2026-04-21 15:10 | 47.64400 | 9.91686 | 8023 ft | 181 kts | 261° |
| 2026-04-21 15:11 | 47.64181 | 9.89845 | 8024 ft | 182 kts | 261° |
| 2026-04-21 15:11 | 47.63963 | 9.88004 | 8024 ft | 183 kts | 261° |
| 2026-04-21 15:11 | 47.63708 | 9.85867 | 8026 ft | 183 kts | 261° |
| 2026-04-21 15:11 | 47.63481 | 9.83970 | 8025 ft | 183 kts | 261° |
| 2026-04-21 15:12 | 47.63322 | 9.82636 | 8028 ft | 183 kts | 261° |
| 2026-04-21 15:12 | 47.63100 | 9.80773 | 8027 ft | 184 kts | 261° |
| 2026-04-21 15:12 | 47.62875 | 9.78909 | 8028 ft | 184 kts | 261° |
| 2026-04-21 15:12 | 47.62652 | 9.77045 | 8031 ft | 184 kts | 261° |
| 2026-04-21 15:13 | 47.62428 | 9.75180 | 8032 ft | 184 kts | 261° |
| 2026-04-21 15:13 | 47.62203 | 9.73314 | 8028 ft | 184 kts | 261° |
| 2026-04-21 15:13 | 47.61980 | 9.71446 | 8034 ft | 184 kts | 261° |
| 2026-04-21 15:13 | 47.61756 | 9.69585 | 8030 ft | 183 kts | 261° |
| 2026-04-21 15:14 | 47.61494 | 9.67415 | 8029 ft | 183 kts | 261° |
| 2026-04-21 15:14 | 47.61312 | 9.65909 | 8034 ft | 183 kts | 261° |
| 2026-04-21 15:14 | 47.61088 | 9.64052 | 8033 ft | 183 kts | 261° |
| 2026-04-21 15:14 | 47.60862 | 9.62197 | 8036 ft | 183 kts | 261° |
| 2026-04-21 15:15 | 47.60637 | 9.60340 | 8040 ft | 183 kts | 261° |
| 2026-04-21 15:15 | 47.60416 | 9.58483 | 8034 ft | 183 kts | 261° |
| 2026-04-21 15:15 | 47.60198 | 9.56626 | 8031 ft | 183 kts | 261° |
| 2026-04-21 15:15 | 47.59977 | 9.54777 | 8037 ft | 182 kts | 261° |
| 2026-04-21 15:16 | 47.59754 | 9.52920 | 8036 ft | 183 kts | 261° |
| 2026-04-21 15:16 | 47.59527 | 9.51066 | 8033 ft | 183 kts | 261° |
| 2026-04-21 15:16 | 47.59298 | 9.49215 | 8034 ft | 183 kts | 261° |
| 2026-04-21 15:16 | 47.59069 | 9.47370 | 8033 ft | 182 kts | 261° |
| 2026-04-21 15:17 | 47.58850 | 9.45519 | 8034 ft | 182 kts | 264° |
| 2026-04-21 15:17 | 47.58784 | 9.43647 | 8032 ft | 182 kts | 271° |
| 2026-04-21 15:17 | 47.58797 | 9.41780 | 8033 ft | 181 kts | 272° |
| 2026-04-21 15:17 | 47.58795 | 9.39915 | 8033 ft | 181 kts | 269° |
| 2026-04-21 15:18 | 47.58779 | 9.38051 | 8034 ft | 181 kts | 270° |
| 2026-04-21 15:18 | 47.58796 | 9.36190 | 8034 ft | 181 kts | 272° |
| 2026-04-21 15:18 | 47.58829 | 9.34329 | 8033 ft | 181 kts | 272° |
| 2026-04-21 15:18 | 47.58859 | 9.32464 | 8040 ft | 182 kts | 272° |
| 2026-04-21 15:19 | 47.58884 | 9.30583 | 8041 ft | 183 kts | 272° |
| 2026-04-21 15:19 | 47.58903 | 9.28687 | 8036 ft | 184 kts | 271° |
| 2026-04-21 15:19 | 47.58919 | 9.26788 | 8031 ft | 184 kts | 271° |
| 2026-04-21 15:19 | 47.58936 | 9.24899 | 8028 ft | 184 kts | 271° |
| 2026-04-21 15:20 | 47.58952 | 9.22996 | 8031 ft | 184 kts | 271° |
| 2026-04-21 15:20 | 47.58966 | 9.21099 | 8031 ft | 184 kts | 271° |
| 2026-04-21 15:20 | 47.58982 | 9.19196 | 8030 ft | 184 kts | 272° |
| 2026-04-21 15:20 | 47.58996 | 9.17359 | 8027 ft | 184 kts | 271° |
| 2026-04-21 15:21 | 47.59008 | 9.15461 | 8025 ft | 184 kts | 271° |
| 2026-04-21 15:21 | 47.59021 | 9.13560 | 8033 ft | 185 kts | 271° |
| 2026-04-21 15:21 | 47.59034 | 9.11657 | 8030 ft | 185 kts | 271° |
| 2026-04-21 15:21 | 47.59046 | 9.09754 | 8032 ft | 185 kts | 272° |
| 2026-04-21 15:22 | 47.59058 | 9.07891 | 8033 ft | 186 kts | 272° |
| 2026-04-21 15:22 | 47.59073 | 9.05975 | 8033 ft | 186 kts | 272° |
| 2026-04-21 15:22 | 47.59087 | 9.04033 | 8031 ft | 186 kts | 272° |
| 2026-04-21 15:22 | 47.59099 | 9.02110 | 8028 ft | 187 kts | 272° |
| 2026-04-21 15:23 | 47.59114 | 9.00185 | 8022 ft | 187 kts | 272° |
| 2026-04-21 15:23 | 47.59125 | 8.98258 | 8020 ft | 187 kts | 272° |
| 2026-04-21 15:23 | 47.59138 | 8.96339 | 8013 ft | 186 kts | 272° |
| 2026-04-21 15:23 | 47.59155 | 8.94424 | 8012 ft | 186 kts | 272° |
| 2026-04-21 15:24 | 47.59160 | 8.92510 | 8025 ft | 186 kts | 271° |
| 2026-04-21 15:24 | 47.59163 | 8.90593 | 8014 ft | 186 kts | 272° |
| 2026-04-21 15:24 | 47.59170 | 8.88678 | 8020 ft | 186 kts | 272° |
| 2026-04-21 15:24 | 47.59178 | 8.86811 | 8020 ft | 187 kts | 272° |
| 2026-04-21 15:25 | 47.59184 | 8.84884 | 8020 ft | 187 kts | 272° |
| 2026-04-21 15:25 | 47.59198 | 8.82954 | 8017 ft | 187 kts | 272° |
| 2026-04-21 15:25 | 47.59381 | 8.81061 | 8017 ft | 186 kts | 289° |
| 2026-04-21 15:25 | 47.59854 | 8.79280 | 8013 ft | 185 kts | 293° |
| 2026-04-21 15:26 | 47.60307 | 8.77542 | 8014 ft | 186 kts | 292° |
| 2026-04-21 15:26 | 47.60764 | 8.75752 | 8022 ft | 186 kts | 292° |
| 2026-04-21 15:26 | 47.61225 | 8.73956 | 8019 ft | 187 kts | 292° |
| 2026-04-21 15:26 | 47.61684 | 8.72153 | 8018 ft | 187 kts | 292° |
| 2026-04-21 15:27 | 47.62144 | 8.70348 | 8012 ft | 187 kts | 292° |
| 2026-04-21 15:27 | 47.62592 | 8.68597 | 8012 ft | 186 kts | 292° |
| 2026-04-21 15:27 | 47.63037 | 8.66858 | 8017 ft | 186 kts | 292° |
| 2026-04-21 15:27 | 47.63498 | 8.65060 | 8010 ft | 186 kts | 292° |
| 2026-04-21 15:28 | 47.63948 | 8.63305 | 8010 ft | 186 kts | 292° |
| 2026-04-21 15:28 | 47.64406 | 8.61507 | 8010 ft | 186 kts | 292° |
| 2026-04-21 15:28 | 47.64865 | 8.59711 | 8018 ft | 186 kts | 292° |
| 2026-04-21 15:28 | 47.65309 | 8.57963 | 8016 ft | 187 kts | 292° |
| 2026-04-21 15:29 | 47.65771 | 8.56157 | 8016 ft | 188 kts | 293° |
| 2026-04-21 15:29 | 47.66233 | 8.54352 | 8006 ft | 187 kts | 292° |
| 2026-04-21 15:29 | 47.66690 | 8.52555 | 8006 ft | 186 kts | 292° |
| 2026-04-21 15:29 | 47.67144 | 8.50761 | 8008 ft | 186 kts | 292° |
| 2026-04-21 15:30 | 47.67588 | 8.49021 | 8024 ft | 186 kts | 293° |
| 2026-04-21 15:30 | 47.68032 | 8.47267 | 8018 ft | 186 kts | 292° |
| 2026-04-21 15:30 | 47.68486 | 8.45466 | 8015 ft | 186 kts | 292° |
| 2026-04-21 15:30 | 47.68796 | 8.43603 | 8015 ft | 189 kts | 271° |
| 2026-04-21 15:31 | 47.68438 | 8.41722 | 8016 ft | 191 kts | 248° |
| 2026-04-21 15:31 | 47.67910 | 8.39913 | 8015 ft | 191 kts | 248° |
| 2026-04-21 15:31 | 47.67401 | 8.38157 | 8013 ft | 190 kts | 248° |
| 2026-04-21 15:31 | 47.66891 | 8.36399 | 8011 ft | 190 kts | 248° |
| 2026-04-21 15:32 | 47.66368 | 8.34594 | 8013 ft | 191 kts | 248° |
| 2026-04-21 15:32 | 47.65846 | 8.32786 | 8020 ft | 191 kts | 248° |
| 2026-04-21 15:32 | 47.65340 | 8.31019 | 8020 ft | 191 kts | 248° |
| 2026-04-21 15:32 | 47.64833 | 8.29259 | 8019 ft | 192 kts | 248° |
| 2026-04-21 15:33 | 47.64324 | 8.27478 | 8017 ft | 192 kts | 248° |
| 2026-04-21 15:33 | 47.63971 | 8.26246 | 8006 ft | 192 kts | 248° |
| 2026-04-21 15:33 | 47.63293 | 8.23882 | 8006 ft | 192 kts | 248° |
| 2026-04-21 15:33 | 47.62797 | 8.22166 | 8001 ft | 191 kts | 248° |
| 2026-04-21 15:34 | 47.62278 | 8.20358 | 8014 ft | 191 kts | 248° |
| 2026-04-21 15:34 | 47.61758 | 8.18546 | 8010 ft | 191 kts | 248° |
| 2026-04-21 15:34 | 47.61240 | 8.16736 | 8004 ft | 191 kts | 248° |
| 2026-04-21 15:34 | 47.60720 | 8.14924 | 7995 ft | 190 kts | 248° |
| 2026-04-21 15:35 | 47.60201 | 8.13125 | 8004 ft | 190 kts | 248° |
| 2026-04-21 15:35 | 47.59683 | 8.11335 | 8002 ft | 190 kts | 248° |
| 2026-04-21 15:35 | 47.59178 | 8.09585 | 8008 ft | 190 kts | 248° |
| 2026-04-21 15:35 | 47.58658 | 8.07787 | 8007 ft | 190 kts | 247° |
| 2026-04-21 15:36 | 47.58137 | 8.05986 | 8001 ft | 190 kts | 248° |
| 2026-04-21 15:36 | 47.57613 | 8.04165 | 8000 ft | 190 kts | 248° |
| 2026-04-21 15:36 | 47.57102 | 8.02394 | 8000 ft | 189 kts | 248° |
| 2026-04-21 15:36 | 47.56600 | 8.00653 | 7994 ft | 189 kts | 247° |
| 2026-04-21 15:37 | 47.56082 | 7.98868 | 7992 ft | 189 kts | 247° |
| 2026-04-21 15:37 | 47.55558 | 7.97061 | 8003 ft | 189 kts | 247° |
| 2026-04-21 15:37 | 47.55038 | 7.95267 | 7997 ft | 189 kts | 247° |
| 2026-04-21 15:37 | 47.54520 | 7.93479 | 8001 ft | 189 kts | 247° |
| 2026-04-21 15:38 | 47.54015 | 7.91742 | 7999 ft | 189 kts | 247° |
| 2026-04-21 15:38 | 47.53509 | 7.90002 | 7999 ft | 189 kts | 247° |
| 2026-04-21 15:38 | 47.52991 | 7.88212 | 7999 ft | 189 kts | 247° |
| 2026-04-21 15:38 | 47.52487 | 7.86484 | 7998 ft | 189 kts | 247° |
| 2026-04-21 15:39 | 47.51965 | 7.84699 | 7994 ft | 189 kts | 247° |
| 2026-04-21 15:39 | 47.51460 | 7.82964 | 7997 ft | 189 kts | 247° |
| 2026-04-21 15:39 | 47.50960 | 7.81250 | 7998 ft | 188 kts | 247° |
| 2026-04-21 15:39 | 47.50130 | 7.79651 | 7998 ft | 188 kts | 218° |
| 2026-04-21 15:40 | 47.49160 | 7.78605 | 8000 ft | 188 kts | 215° |
| 2026-04-21 15:40 | 47.48088 | 7.77488 | 8002 ft | 189 kts | 215° |
| 2026-04-21 15:40 | 47.47014 | 7.76373 | 8001 ft | 189 kts | 215° |
| 2026-04-21 15:40 | 47.45971 | 7.75286 | 8000 ft | 189 kts | 215° |
| 2026-04-21 15:41 | 47.44898 | 7.74158 | 7999 ft | 189 kts | 216° |
| 2026-04-21 15:41 | 47.43826 | 7.73025 | 7995 ft | 189 kts | 216° |
| 2026-04-21 15:41 | 47.42756 | 7.71892 | 7997 ft | 189 kts | 216° |
| 2026-04-21 15:41 | 47.41687 | 7.70757 | 7997 ft | 189 kts | 216° |
| 2026-04-21 15:42 | 47.40652 | 7.69656 | 7998 ft | 189 kts | 216° |
| 2026-04-21 15:42 | 47.39583 | 7.68516 | 7992 ft | 189 kts | 216° |
| 2026-04-21 15:42 | 47.38514 | 7.67381 | 7992 ft | 189 kts | 216° |
| 2026-04-21 15:42 | 47.37448 | 7.66248 | 7994 ft | 190 kts | 216° |